sensor_id;sensor_type;location;lat;lon;timestamp;pressure;altitude;pressure_sealevel;temperature;humidity
39105;BME280;46464;51.154;13.812;2022-09-28T00:00:09;97581.31;;;8.07;98.05
39105;BME280;46464;51.154;13.812;2022-09-28T00:02:37;97581.38;;;8.06;98.52
39105;BME280;46464;51.154;13.812;2022-09-28T00:05:04;97576.16;;;8.04;99.11
39105;BME280;46464;51.154;13.812;2022-09-28T00:07:30;97575.75;;;8.11;98.73
39105;BME280;46464;51.154;13.812;2022-09-28T00:09:57;97580.16;;;8.12;98.32
39105;BME280;46464;51.154;13.812;2022-09-28T00:12:23;97576.94;;;8.19;97.68
39105;BME280;46464;51.154;13.812;2022-09-28T00:14:50;97570.53;;;8.22;97.42
39105;BME280;46464;51.154;13.812;2022-09-28T00:17:16;97568.94;;;8.19;97.55
39105;BME280;46464;51.154;13.812;2022-09-28T00:19:47;97565.50;;;8.17;98.12
39105;BME280;46464;51.154;13.812;2022-09-28T00:22:13;97569.16;;;8.16;98.18
39105;BME280;46464;51.154;13.812;2022-09-28T00:24:40;97559.09;;;8.20;97.36
39105;BME280;46464;51.154;13.812;2022-09-28T00:27:06;97559.09;;;8.20;97.73
39105;BME280;46464;51.154;13.812;2022-09-28T00:29:35;97561.78;;;8.20;97.30
39105;BME280;46464;51.154;13.812;2022-09-28T00:32:06;97565.06;;;8.23;96.76
39105;BME280;46464;51.154;13.812;2022-09-28T00:34:37;97552.69;;;8.22;96.88
39105;BME280;46464;51.154;13.812;2022-09-28T00:37:05;97549.66;;;8.14;96.74
39105;BME280;46464;51.154;13.812;2022-09-28T00:39:31;97553.09;;;8.16;97.60
39105;BME280;46464;51.154;13.812;2022-09-28T00:41:58;97556.50;;;8.18;97.47
39105;BME280;46464;51.154;13.812;2022-09-28T00:49:38;97550.84;;;8.10;98.65
39105;BME280;46464;51.154;13.812;2022-09-28T00:52:07;97547.38;;;8.08;98.76
39105;BME280;46464;51.154;13.812;2022-09-28T00:54:34;97543.88;;;8.07;99.00
39105;BME280;46464;51.154;13.812;2022-09-28T00:57:01;97542.03;;;8.08;98.30
39105;BME280;46464;51.154;13.812;2022-09-28T00:59:29;97534.44;;;8.02;98.30
39105;BME280;46464;51.154;13.812;2022-09-28T01:01:56;97543.41;;;8.01;98.65
39105;BME280;46464;51.154;13.812;2022-09-28T01:04:23;97539.41;;;7.94;99.08
39105;BME280;46464;51.154;13.812;2022-09-28T01:06:55;97542.31;;;7.90;99.23
39105;BME280;46464;51.154;13.812;2022-09-28T01:09:23;97540.81;;;7.86;99.31
39105;BME280;46464;51.154;13.812;2022-09-28T01:11:49;97537.47;;;7.83;99.06
39105;BME280;46464;51.154;13.812;2022-09-28T01:14:16;97533.94;;;7.82;98.71
39105;BME280;46464;51.154;13.812;2022-09-28T01:17:02;97528.97;;;7.76;98.80
39105;BME280;46464;51.154;13.812;2022-09-28T01:24:41;97529.69;;;7.65;99.66
39105;BME280;46464;51.154;13.812;2022-09-28T01:27:27;97520.25;;;7.59;99.40
39105;BME280;46464;51.154;13.812;2022-09-28T01:32:31;97524.19;;;7.54;99.82
39105;BME280;46464;51.154;13.812;2022-09-28T01:35:14;97517.09;;;7.53;99.58
39105;BME280;46464;51.154;13.812;2022-09-28T01:37:48;97509.69;;;7.58;99.00
39105;BME280;46464;51.154;13.812;2022-09-28T01:40:18;97517.03;;;7.54;99.09
39105;BME280;46464;51.154;13.812;2022-09-28T01:42:47;97509.19;;;7.51;99.40
39105;BME280;46464;51.154;13.812;2022-09-28T01:45:21;97512.34;;;7.58;99.00
39105;BME280;46464;51.154;13.812;2022-09-28T01:47:48;97509.19;;;7.51;99.62
39105;BME280;46464;51.154;13.812;2022-09-28T01:50:17;97507.88;;;7.44;99.85
39105;BME280;46464;51.154;13.812;2022-09-28T01:52:48;97508.34;;;7.51;99.83
39105;BME280;46464;51.154;13.812;2022-09-28T01:57:50;97515.22;;;7.40;100.00
39105;BME280;46464;51.154;13.812;2022-09-28T02:00:20;97504.00;;;7.35;100.00
39105;BME280;46464;51.154;13.812;2022-09-28T02:03:35;97502.47;;;7.31;100.00
39105;BME280;46464;51.154;13.812;2022-09-28T02:05:37;97500.75;;;7.30;100.00
39105;BME280;46464;51.154;13.812;2022-09-28T02:08:08;97496.59;;;7.26;100.00
39105;BME280;46464;51.154;13.812;2022-09-28T02:10:41;97495.72;;;7.25;100.00
39105;BME280;46464;51.154;13.812;2022-09-28T02:13:10;97496.75;;;7.23;100.00
39105;BME280;46464;51.154;13.812;2022-09-28T02:18:05;97499.25;;;7.26;100.00
39105;BME280;46464;51.154;13.812;2022-09-28T02:20:31;97497.63;;;7.23;100.00
39105;BME280;46464;51.154;13.812;2022-09-28T02:23:00;97497.63;;;7.23;100.00
39105;BME280;46464;51.154;13.812;2022-09-28T02:25:38;97495.06;;;7.22;100.00
39105;BME280;46464;51.154;13.812;2022-09-28T02:28:06;97494.03;;;7.24;100.00
39105;BME280;46464;51.154;13.812;2022-09-28T02:30:34;97493.25;;;7.22;100.00
39105;BME280;46464;51.154;13.812;2022-09-28T02:33:08;97487.69;;;7.25;100.00
39105;BME280;46464;51.154;13.812;2022-09-28T02:35:36;97492.97;;;7.27;100.00
39105;BME280;46464;51.154;13.812;2022-09-28T02:38:03;97491.34;;;7.24;100.00
39105;BME280;46464;51.154;13.812;2022-09-28T02:40:33;97494.19;;;7.21;100.00
39105;BME280;46464;51.154;13.812;2022-09-28T02:48:08;97486.69;;;7.14;100.00
39105;BME280;46464;51.154;13.812;2022-09-28T02:50:42;97486.03;;;7.10;100.00
39105;BME280;46464;51.154;13.812;2022-09-28T03:03:47;97472.00;;;6.92;100.00
39105;BME280;46464;51.154;13.812;2022-09-28T03:09:04;97462.22;;;6.78;100.00
39105;BME280;46464;51.154;13.812;2022-09-28T03:11:36;97462.50;;;6.73;100.00
39105;BME280;46464;51.154;13.812;2022-09-28T03:14:05;97457.34;;;6.70;100.00
39105;BME280;46464;51.154;13.812;2022-09-28T03:16:32;97459.34;;;6.67;100.00
39105;BME280;46464;51.154;13.812;2022-09-28T03:18:58;97456.69;;;6.67;100.00
39105;BME280;46464;51.154;13.812;2022-09-28T03:21:25;97459.47;;;6.65;100.00
39105;BME280;46464;51.154;13.812;2022-09-28T03:23:52;97449.72;;;6.64;100.00
39105;BME280;46464;51.154;13.812;2022-09-28T03:26:18;97453.47;;;6.61;100.00
39105;BME280;46464;51.154;13.812;2022-09-28T03:28:45;97451.94;;;6.57;100.00
39105;BME280;46464;51.154;13.812;2022-09-28T03:31:11;97449.44;;;6.54;100.00
39105;BME280;46464;51.154;13.812;2022-09-28T03:33:38;97453.25;;;6.50;100.00
39105;BME280;46464;51.154;13.812;2022-09-28T03:36:04;97450.09;;;6.43;100.00
39105;BME280;46464;51.154;13.812;2022-09-28T03:38:31;97445.13;;;6.37;100.00
39105;BME280;46464;51.154;13.812;2022-09-28T03:40:58;97447.34;;;6.30;100.00
39105;BME280;46464;51.154;13.812;2022-09-28T03:43:25;97444.94;;;6.26;100.00
39105;BME280;46464;51.154;13.812;2022-09-28T03:48:29;97439.41;;;6.14;100.00
39105;BME280;46464;51.154;13.812;2022-09-28T03:50:59;97443.28;;;6.09;100.00
39105;BME280;46464;51.154;13.812;2022-09-28T03:53:26;97449.59;;;6.08;100.00
39105;BME280;46464;51.154;13.812;2022-09-28T03:55:54;97447.88;;;6.07;100.00
39105;BME280;46464;51.154;13.812;2022-09-28T03:58:21;97443.28;;;6.09;100.00
39105;BME280;46464;51.154;13.812;2022-09-28T04:00:48;97447.56;;;6.11;100.00
39105;BME280;46464;51.154;13.812;2022-09-28T04:03:15;97442.91;;;6.15;100.00
39105;BME280;46464;51.154;13.812;2022-09-28T04:05:48;97445.31;;;6.20;100.00
39105;BME280;46464;51.154;13.812;2022-09-28T04:08:15;97444.94;;;6.26;100.00
39105;BME280;46464;51.154;13.812;2022-09-28T04:10:41;97441.13;;;6.30;100.00
39105;BME280;46464;51.154;13.812;2022-09-28T04:13:08;97440.75;;;6.36;100.00
39105;BME280;46464;51.154;13.812;2022-09-28T04:15:34;97436.97;;;6.40;100.00
39105;BME280;46464;51.154;13.812;2022-09-28T04:18:03;97436.50;;;6.48;100.00
39105;BME280;46464;51.154;13.812;2022-09-28T04:20:30;97424.59;;;6.54;100.00
39105;BME280;46464;51.154;13.812;2022-09-28T04:22:58;97418.88;;;6.60;100.00
39105;BME280;46464;51.154;13.812;2022-09-28T04:25:24;97414.09;;;6.65;100.00
39105;BME280;46464;51.154;13.812;2022-09-28T04:27:51;97415.31;;;6.74;100.00
39105;BME280;46464;51.154;13.812;2022-09-28T04:30:35;97411.59;;;6.76;100.00
39105;BME280;46464;51.154;13.812;2022-09-28T04:33:02;97419.22;;;6.83;100.00
39105;BME280;46464;51.154;13.812;2022-09-28T04:35:28;97408.06;;;6.90;100.00
39105;BME280;46464;51.154;13.812;2022-09-28T04:37:55;97407.09;;;6.91;100.00
39105;BME280;46464;51.154;13.812;2022-09-28T04:40:21;97413.22;;;6.93;100.00
39105;BME280;46464;51.154;13.812;2022-09-28T04:42:51;97411.19;;;6.97;100.00
39105;BME280;46464;51.154;13.812;2022-09-28T04:45:18;97392.50;;;6.97;100.00
39105;BME280;46464;51.154;13.812;2022-09-28T04:47:44;97382.69;;;6.98;100.00
39105;BME280;46464;51.154;13.812;2022-09-28T04:50:11;97375.63;;;6.97;100.00
39105;BME280;46464;51.154;13.812;2022-09-28T04:52:37;97381.91;;;6.95;100.00
39105;BME280;46464;51.154;13.812;2022-09-28T04:55:04;97375.72;;;6.95;100.00
39105;BME280;46464;51.154;13.812;2022-09-28T04:57:34;97375.84;;;6.93;100.00
39105;BME280;46464;51.154;13.812;2022-09-28T05:00:00;97367.91;;;6.92;100.00
39105;BME280;46464;51.154;13.812;2022-09-28T05:02:29;97358.28;;;6.89;100.00
39105;BME280;46464;51.154;13.812;2022-09-28T05:04:55;97355.63;;;6.89;100.00
39105;BME280;46464;51.154;13.812;2022-09-28T05:07:24;97356.69;;;6.87;100.00
39105;BME280;46464;51.154;13.812;2022-09-28T05:09:51;97359.56;;;6.84;100.00
39105;BME280;46464;51.154;13.812;2022-09-28T05:12:18;97351.63;;;6.82;100.00
39105;BME280;46464;51.154;13.812;2022-09-28T05:14:44;97343.63;;;6.82;100.00
39105;BME280;46464;51.154;13.812;2022-09-28T05:17:10;97342.88;;;6.80;100.00
39105;BME280;46464;51.154;13.812;2022-09-28T05:19:37;97344.69;;;6.79;100.00
39105;BME280;46464;51.154;13.812;2022-09-28T05:22:03;97347.44;;;6.78;100.00
39105;BME280;46464;51.154;13.812;2022-09-28T05:24:31;97345.66;;;6.78;100.00
39105;BME280;46464;51.154;13.812;2022-09-28T05:26:57;97355.47;;;6.78;100.00
39105;BME280;46464;51.154;13.812;2022-09-28T05:29:23;97346.69;;;6.76;100.00
39105;BME280;46464;51.154;13.812;2022-09-28T05:31:55;97358.13;;;6.78;100.00
39105;BME280;46464;51.154;13.812;2022-09-28T05:34:21;97350.13;;;6.78;100.00
39105;BME280;46464;51.154;13.812;2022-09-28T05:36:48;97354.50;;;6.79;100.00
39105;BME280;46464;51.154;13.812;2022-09-28T05:39:14;97353.44;;;6.82;100.00
39105;BME280;46464;51.154;13.812;2022-09-28T05:41:40;97344.59;;;6.81;100.00
39105;BME280;46464;51.154;13.812;2022-09-28T05:44:07;97335.63;;;6.82;100.00
39105;BME280;46464;51.154;13.812;2022-09-28T05:46:33;97335.44;;;6.85;100.00
39105;BME280;46464;51.154;13.812;2022-09-28T05:48:59;97335.31;;;6.87;100.00
39105;BME280;46464;51.154;13.812;2022-09-28T05:51:26;97332.47;;;6.90;100.00
39105;BME280;46464;51.154;13.812;2022-09-28T05:53:53;97334.94;;;6.93;100.00
39105;BME280;46464;51.154;13.812;2022-09-28T05:56:19;97332.06;;;6.96;100.00
39105;BME280;46464;51.154;13.812;2022-09-28T05:58:46;97321.16;;;6.99;100.00
39105;BME280;46464;51.154;13.812;2022-09-28T06:01:12;97315.66;;;7.02;100.00
39105;BME280;46464;51.154;13.812;2022-09-28T06:03:40;97317.16;;;7.06;100.00
39105;BME280;46464;51.154;13.812;2022-09-28T06:06:06;97322.31;;;7.09;100.00
39105;BME280;46464;51.154;13.812;2022-09-28T06:08:32;97309.69;;;7.11;100.00
39105;BME280;46464;51.154;13.812;2022-09-28T06:10:59;97302.22;;;7.17;100.00
39105;BME280;46464;51.154;13.812;2022-09-28T06:13:26;97297.34;;;7.23;100.00
39105;BME280;46464;51.154;13.812;2022-09-28T06:15:53;97292.53;;;7.29;100.00
39105;BME280;46464;51.154;13.812;2022-09-28T06:18:20;97289.66;;;7.32;100.00
39105;BME280;46464;51.154;13.812;2022-09-28T06:20:46;97300.03;;;7.36;100.00
39105;BME280;46464;51.154;13.812;2022-09-28T06:23:12;97287.31;;;7.40;100.00
39105;BME280;46464;51.154;13.812;2022-09-28T06:25:39;97285.31;;;7.43;100.00
39105;BME280;46464;51.154;13.812;2022-09-28T06:28:07;97286.59;;;7.51;100.00
39105;BME280;46464;51.154;13.812;2022-09-28T06:30:34;97265.22;;;7.51;100.00
39105;BME280;46464;51.154;13.812;2022-09-28T06:33:03;97273.66;;;7.57;100.00
39105;BME280;46464;51.154;13.812;2022-09-28T06:35:30;97267.34;;;7.58;100.00
39105;BME280;46464;51.154;13.812;2022-09-28T06:37:57;97252.81;;;7.63;100.00
39105;BME280;46464;51.154;13.812;2022-09-28T06:40:24;97255.19;;;7.67;100.00
39105;BME280;46464;51.154;13.812;2022-09-28T06:45:21;97264.16;;;7.66;100.00
39105;BME280;46464;51.154;13.812;2022-09-28T06:47:53;97273.69;;;7.70;100.00
39105;BME280;46464;51.154;13.812;2022-09-28T06:50:21;97279.34;;;7.79;100.00
39105;BME280;46464;51.154;13.812;2022-09-28T06:52:51;97274.31;;;7.87;100.00
39105;BME280;46464;51.154;13.812;2022-09-28T06:55:17;97268.41;;;7.95;100.00
39105;BME280;46464;51.154;13.812;2022-09-28T06:57:44;97272.38;;;8.02;100.00
39105;BME280;46464;51.154;13.812;2022-09-28T07:00:10;97282.66;;;8.08;100.00
39105;BME280;46464;51.154;13.812;2022-09-28T07:02:37;97264.25;;;8.16;100.00
39105;BME280;46464;51.154;13.812;2022-09-28T07:05:04;97265.72;;;8.20;100.00
39105;BME280;46464;51.154;13.812;2022-09-28T07:07:33;97277.81;;;8.26;100.00
39105;BME280;46464;51.154;13.812;2022-09-28T07:09:59;97270.41;;;8.30;100.00
39105;BME280;46464;51.154;13.812;2022-09-28T07:12:26;97269.34;;;8.32;100.00
39105;BME280;46464;51.154;13.812;2022-09-28T07:14:53;97264.50;;;8.37;100.00
39105;BME280;46464;51.154;13.812;2022-09-28T07:17:22;97265.25;;;8.39;100.00
39105;BME280;46464;51.154;13.812;2022-09-28T07:19:49;97271.22;;;8.43;100.00
39105;BME280;46464;51.154;13.812;2022-09-28T07:22:19;97278.97;;;8.48;100.00
39105;BME280;46464;51.154;13.812;2022-09-28T07:25:05;97289.53;;;8.49;100.00
39105;BME280;46464;51.154;13.812;2022-09-28T07:27:32;97276.91;;;8.51;100.00
39105;BME280;46464;51.154;13.812;2022-09-28T07:29:59;97282.91;;;8.55;100.00
39105;BME280;46464;51.154;13.812;2022-09-28T07:32:26;97302.41;;;8.57;100.00
39105;BME280;46464;51.154;13.812;2022-09-28T07:34:53;97307.94;;;8.54;100.00
39105;BME280;46464;51.154;13.812;2022-09-28T07:37:24;97312.03;;;8.60;100.00
39105;BME280;46464;51.154;13.812;2022-09-28T07:39:53;97305.78;;;8.59;100.00
39105;BME280;46464;51.154;13.812;2022-09-28T07:42:39;97296.16;;;8.56;100.00
39105;BME280;46464;51.154;13.812;2022-09-28T07:45:05;97299.81;;;8.55;100.00
39105;BME280;46464;51.154;13.812;2022-09-28T07:47:32;97288.13;;;8.56;100.00
39105;BME280;46464;51.154;13.812;2022-09-28T07:50:00;97283.88;;;8.54;100.00
39105;BME280;46464;51.154;13.812;2022-09-28T07:52:27;97284.63;;;8.56;100.00
39105;BME280;46464;51.154;13.812;2022-09-28T07:54:54;97297.03;;;8.57;100.00
39105;BME280;46464;51.154;13.812;2022-09-28T07:57:21;97295.22;;;8.58;100.00
39105;BME280;46464;51.154;13.812;2022-09-28T07:59:48;97292.66;;;8.56;100.00
39105;BME280;46464;51.154;13.812;2022-09-28T08:02:15;97291.56;;;8.59;100.00
39105;BME280;46464;51.154;13.812;2022-09-28T08:04:48;97284.50;;;8.58;100.00
39105;BME280;46464;51.154;13.812;2022-09-28T08:07:16;97283.41;;;8.60;100.00
39105;BME280;46464;51.154;13.812;2022-09-28T08:09:48;97293.16;;;8.61;100.00
39105;BME280;46464;51.154;13.812;2022-09-28T08:12:15;97289.53;;;8.62;100.00
39105;BME280;46464;51.154;13.812;2022-09-28T08:14:43;97300.00;;;8.65;100.00
39105;BME280;46464;51.154;13.812;2022-09-28T08:17:09;97306.81;;;8.69;100.00
39105;BME280;46464;51.154;13.812;2022-09-28T08:19:36;97299.78;;;8.68;100.00
39105;BME280;46464;51.154;13.812;2022-09-28T08:22:21;97301.38;;;8.71;100.00
39105;BME280;46464;51.154;13.812;2022-09-28T08:24:47;97295.06;;;8.72;100.00
39105;BME280;46464;51.154;13.812;2022-09-28T08:27:15;97307.38;;;8.75;100.00
39105;BME280;46464;51.154;13.812;2022-09-28T08:29:41;97300.06;;;8.77;100.00
39105;BME280;46464;51.154;13.812;2022-09-28T08:32:08;97304.34;;;8.79;100.00
39105;BME280;46464;51.154;13.812;2022-09-28T08:34:36;97299.59;;;8.83;100.00
39105;BME280;46464;51.154;13.812;2022-09-28T08:37:03;97297.56;;;8.86;100.00
39105;BME280;46464;51.154;13.812;2022-09-28T08:39:30;97308.91;;;8.90;100.00
39105;BME280;46464;51.154;13.812;2022-09-28T08:44:24;97318.19;;;8.97;100.00
39105;BME280;46464;51.154;13.812;2022-09-28T08:46:55;97307.59;;;8.96;100.00
39105;BME280;46464;51.154;13.812;2022-09-28T08:49:40;97312.84;;;8.97;100.00
39105;BME280;46464;51.154;13.812;2022-09-28T08:52:12;97310.16;;;8.97;100.00
39105;BME280;46464;51.154;13.812;2022-09-28T08:57:13;97310.84;;;8.88;100.00
39105;BME280;46464;51.154;13.812;2022-09-28T08:59:42;97296.59;;;8.87;100.00
39105;BME280;46464;51.154;13.812;2022-09-28T09:02:15;97297.44;;;8.88;100.00
39105;BME280;46464;51.154;13.812;2022-09-28T09:04:44;97291.56;;;8.83;100.00
39105;BME280;46464;51.154;13.812;2022-09-28T09:17:59;97317.63;;;9.05;100.00
39105;BME280;46464;51.154;13.812;2022-09-28T09:20:32;97311.75;;;9.00;100.00
39105;BME280;46464;51.154;13.812;2022-09-28T09:23:15;97311.88;;;8.98;100.00
39105;BME280;46464;51.154;13.812;2022-09-28T09:33:51;97283.88;;;9.27;100.00
39105;BME280;46464;51.154;13.812;2022-09-28T09:46:33;97289.53;;;9.46;100.00
39105;BME280;46464;51.154;13.812;2022-09-28T09:49:26;97288.53;;;9.36;100.00
39105;BME280;46464;51.154;13.812;2022-09-28T09:51:57;97289.75;;;9.32;100.00
39105;BME280;46464;51.154;13.812;2022-09-28T09:54:29;97286.44;;;9.28;100.00
39105;BME280;46464;51.154;13.812;2022-09-28T09:59:39;97293.97;;;9.23;100.00
39105;BME280;46464;51.154;13.812;2022-09-28T10:02:12;97292.25;;;9.22;100.00
39105;BME280;46464;51.154;13.812;2022-09-28T10:04:42;97292.09;;;9.12;100.00
39105;BME280;46464;51.154;13.812;2022-09-28T10:07:17;97302.59;;;9.15;100.00
39105;BME280;46464;51.154;13.812;2022-09-28T10:09:45;97295.13;;;9.08;100.00
39105;BME280;46464;51.154;13.812;2022-09-28T10:12:14;97297.91;;;9.06;100.00
39105;BME280;46464;51.154;13.812;2022-09-28T10:14:44;97295.31;;;8.93;100.00
39105;BME280;46464;51.154;13.812;2022-09-28T10:17:15;97301.13;;;8.87;100.00
39105;BME280;46464;51.154;13.812;2022-09-28T10:19:42;97301.44;;;8.82;100.00
39105;BME280;46464;51.154;13.812;2022-09-28T10:22:10;97306.34;;;8.88;100.00
39105;BME280;46464;51.154;13.812;2022-09-28T10:24:45;97307.47;;;8.73;100.00
39105;BME280;46464;51.154;13.812;2022-09-28T10:27:13;97305.13;;;8.68;100.00
39105;BME280;46464;51.154;13.812;2022-09-28T10:29:42;97310.50;;;8.55;100.00
39105;BME280;46464;51.154;13.812;2022-09-28T10:32:20;97300.25;;;8.49;100.00
39105;BME280;46464;51.154;13.812;2022-09-28T10:34:47;97291.56;;;8.46;100.00
39105;BME280;46464;51.154;13.812;2022-09-28T10:37:16;97292.75;;;8.42;100.00
39105;BME280;46464;51.154;13.812;2022-09-28T10:39:50;97288.25;;;8.42;100.00
39105;BME280;46464;51.154;13.812;2022-09-28T10:42:19;97287.50;;;8.40;100.00
39105;BME280;46464;51.154;13.812;2022-09-28T10:44:54;97284.97;;;8.38;100.00
39105;BME280;46464;51.154;13.812;2022-09-28T10:47:22;97283.00;;;8.40;100.00
39105;BME280;46464;51.154;13.812;2022-09-28T10:49:49;97283.66;;;8.44;100.00
39105;BME280;46464;51.154;13.812;2022-09-28T10:55:24;97273.03;;;8.55;100.00
39105;BME280;46464;51.154;13.812;2022-09-28T10:57:49;97272.94;;;8.57;100.00
39105;BME280;46464;51.154;13.812;2022-09-28T11:03:00;97268.13;;;8.49;100.00
39105;BME280;46464;51.154;13.812;2022-09-28T11:05:27;97264.63;;;8.49;100.00
39105;BME280;46464;51.154;13.812;2022-09-28T11:07:54;97259.44;;;8.46;100.00
39105;BME280;46464;51.154;13.812;2022-09-28T11:10:23;97254.44;;;8.41;100.00
39105;BME280;46464;51.154;13.812;2022-09-28T11:12:51;97254.31;;;8.43;100.00
39105;BME280;46464;51.154;13.812;2022-09-28T11:15:20;97254.31;;;8.43;100.00
39105;BME280;46464;51.154;13.812;2022-09-28T11:17:47;97249.31;;;8.38;100.00
39105;BME280;46464;51.154;13.812;2022-09-28T11:22:54;97267.06;;;8.39;100.00
39105;BME280;46464;51.154;13.812;2022-09-28T11:30:20;97235.72;;;8.41;100.00
39105;BME280;46464;51.154;13.812;2022-09-28T11:32:47;97236.16;;;8.35;100.00
39105;BME280;46464;51.154;13.812;2022-09-28T11:38:09;97246.41;;;8.41;100.00
39105;BME280;46464;51.154;13.812;2022-09-28T11:45:50;97250.06;;;8.77;100.00
39105;BME280;46464;51.154;13.812;2022-09-28T11:48:24;97251.38;;;8.96;100.00
39105;BME280;46464;51.154;13.812;2022-09-28T11:50:53;97262.75;;;9.11;100.00
39105;BME280;46464;51.154;13.812;2022-09-28T11:53:30;97258.56;;;9.31;100.00
39105;BME280;46464;51.154;13.812;2022-09-28T11:58:53;97249.59;;;9.55;100.00
39105;BME280;46464;51.154;13.812;2022-09-28T12:01:23;97246.94;;;9.66;100.00
39105;BME280;46464;51.154;13.812;2022-09-28T12:03:52;97243.69;;;9.74;100.00
39105;BME280;46464;51.154;13.812;2022-09-28T12:06:25;97242.94;;;9.94;100.00
39105;BME280;46464;51.154;13.812;2022-09-28T12:08:54;97253.31;;;10.10;100.00
39105;BME280;46464;51.154;13.812;2022-09-28T12:11:57;97248.44;;;10.27;100.00
39105;BME280;46464;51.154;13.812;2022-09-28T12:14:28;97254.78;;;10.48;100.00
39105;BME280;46464;51.154;13.812;2022-09-28T12:16:57;97255.03;;;10.57;100.00
39105;BME280;46464;51.154;13.812;2022-09-28T12:19:41;97256.84;;;10.56;100.00
39105;BME280;46464;51.154;13.812;2022-09-28T12:22:13;97261.63;;;10.53;100.00
39105;BME280;46464;51.154;13.812;2022-09-28T12:24:44;97264.53;;;10.61;100.00
39105;BME280;46464;51.154;13.812;2022-09-28T12:27:34;97268.44;;;10.45;100.00
39105;BME280;46464;51.154;13.812;2022-09-28T12:30:05;97261.72;;;10.62;100.00
39105;BME280;46464;51.154;13.812;2022-09-28T12:32:38;97271.59;;;10.73;100.00
39105;BME280;46464;51.154;13.812;2022-09-28T12:35:14;97278.41;;;10.77;100.00
39105;BME280;46464;51.154;13.812;2022-09-28T12:48:30;97294.66;;;10.19;100.00
39105;BME280;46464;51.154;13.812;2022-09-28T12:59:16;97304.09;;;10.36;100.00
39105;BME280;46464;51.154;13.812;2022-09-28T13:06:43;97317.00;;;10.20;98.48
39105;BME280;46464;51.154;13.812;2022-09-28T13:09:16;97308.56;;;10.13;98.97
39105;BME280;46464;51.154;13.812;2022-09-28T13:19:38;97327.78;;;9.84;99.96
39105;BME280;46464;51.154;13.812;2022-09-28T13:24:43;97335.59;;;9.87;98.59
39105;BME280;46464;51.154;13.812;2022-09-28T13:27:34;97328.16;;;9.91;99.49
39105;BME280;46464;51.154;13.812;2022-09-28T13:29:58;97337.91;;;9.92;100.00
39105;BME280;46464;51.154;13.812;2022-09-28T13:32:26;97345.59;;;9.85;99.30
39105;BME280;46464;51.154;13.812;2022-09-28T13:34:55;97342.97;;;9.72;97.49
39105;BME280;46464;51.154;13.812;2022-09-28T13:37:23;97354.59;;;9.73;97.19
39105;BME280;46464;51.154;13.812;2022-09-28T13:39:53;97347.97;;;9.65;98.36
39105;BME280;46464;51.154;13.812;2022-09-28T13:42:23;97347.84;;;9.67;97.17
39105;BME280;46464;51.154;13.812;2022-09-28T13:50:12;97368.06;;;9.60;99.14
39105;BME280;46464;51.154;13.812;2022-09-28T13:52:46;97369.19;;;9.68;99.36
39105;BME280;46464;51.154;13.812;2022-09-28T13:55:23;97368.16;;;9.58;98.55
39105;BME280;46464;51.154;13.812;2022-09-28T13:57:55;97362.31;;;9.53;97.24
39105;BME280;46464;51.154;13.812;2022-09-28T14:00:26;97370.94;;;9.45;97.41
39105;BME280;46464;51.154;13.812;2022-09-28T14:02:58;97375.72;;;9.53;98.56
39105;BME280;46464;51.154;13.812;2022-09-28T14:05:33;97382.31;;;9.36;100.00
39105;BME280;46464;51.154;13.812;2022-09-28T14:11:31;97375.22;;;9.48;100.00
39105;BME280;46464;51.154;13.812;2022-09-28T14:16:37;97396.97;;;9.43;99.21
39105;BME280;46464;51.154;13.812;2022-09-28T14:31:54;97415.75;;;9.43;99.35
39105;BME280;46464;51.154;13.812;2022-09-28T14:34:31;97424.06;;;9.27;100.00
39105;BME280;46464;51.154;13.812;2022-09-28T14:36:59;97424.19;;;9.26;100.00
39105;BME280;46464;51.154;13.812;2022-09-28T14:39:45;97423.41;;;9.24;100.00
39105;BME280;46464;51.154;13.812;2022-09-28T14:42:30;97429.41;;;9.27;100.00
39105;BME280;46464;51.154;13.812;2022-09-28T14:49:59;97418.13;;;9.11;100.00
39105;BME280;46464;51.154;13.812;2022-09-28T14:52:39;97418.69;;;9.03;100.00
39105;BME280;46464;51.154;13.812;2022-09-28T14:55:11;97421.00;;;9.08;100.00
39105;BME280;46464;51.154;13.812;2022-09-28T14:57:39;97419.53;;;9.03;100.00
39105;BME280;46464;51.154;13.812;2022-09-28T15:00:06;97428.72;;;9.12;100.00
39105;BME280;46464;51.154;13.812;2022-09-28T15:02:34;97423.16;;;9.15;100.00
39105;BME280;46464;51.154;13.812;2022-09-28T15:07:46;97430.44;;;9.13;100.00
39105;BME280;46464;51.154;13.812;2022-09-28T15:10:14;97428.16;;;9.20;100.00
39105;BME280;46464;51.154;13.812;2022-09-28T15:12:49;97434.47;;;9.19;100.00
39105;BME280;46464;51.154;13.812;2022-09-28T15:15:22;97431.19;;;9.15;100.00
39105;BME280;46464;51.154;13.812;2022-09-28T15:17:52;97423.28;;;9.38;100.00
39105;BME280;46464;51.154;13.812;2022-09-28T15:22:50;97442.25;;;9.35;100.00
39105;BME280;46464;51.154;13.812;2022-09-28T15:25:19;97440.88;;;9.53;99.71
39105;BME280;46464;51.154;13.812;2022-09-28T15:27:50;97442.31;;;9.46;97.96
39105;BME280;46464;51.154;13.812;2022-09-28T15:32:44;97449.38;;;9.23;98.53
39105;BME280;46464;51.154;13.812;2022-09-28T15:35:11;97456.97;;;9.16;99.57
39105;BME280;46464;51.154;13.812;2022-09-28T15:37:42;97452.69;;;9.14;100.00
39105;BME280;46464;51.154;13.812;2022-09-28T15:40:13;97457.41;;;9.10;100.00
39105;BME280;46464;51.154;13.812;2022-09-28T15:42:42;97460.34;;;9.07;100.00
39105;BME280;46464;51.154;13.812;2022-09-28T15:47:40;97462.94;;;8.96;100.00
39105;BME280;46464;51.154;13.812;2022-09-28T15:50:07;97471.94;;;8.82;100.00
39105;BME280;46464;51.154;13.812;2022-09-28T15:52:51;97479.00;;;8.83;100.00
39105;BME280;46464;51.154;13.812;2022-09-28T15:57:45;97484.28;;;8.84;100.00
39105;BME280;46464;51.154;13.812;2022-09-28T16:03:02;97479.53;;;8.75;100.00
39105;BME280;46464;51.154;13.812;2022-09-28T16:08:03;97486.63;;;8.76;100.00